Time;durP1;ratioP1;P1;durP2;ratioP2;P2;SDS_P1;SDS_P2;PMS_P1;PMS_P2;Temp;Humidity;BMP_temperature;BMP_pressure;BME280_temperature;BME280_humidity;BME280_pressure;Samples;Min_cycle;Max_cycle;Signal;HPM_P1;HPM_P2
2023/11/20 00:01:34;;;;;;;11.77;2.60;;;;;;;12.15;100.00;100004.84;5035607;28;20041;-70
2023/11/20 00:04:06;;;;;;;17.40;2.83;;;;;;;12.19;100.00;99998.41;5043961;28;20041;-69
2023/11/20 00:06:38;;;;;;;16.23;2.40;;;;;;;12.16;100.00;99995.94;5043026;28;20041;-70
2023/11/20 00:09:07;;;;;;;14.10;2.05;;;;;;;12.15;100.00;99990.72;5041640;28;20385;-70
2023/11/20 00:11:35;;;;;;;11.73;1.73;;;;;;;12.11;100.00;99979.44;5037932;28;20045;-69
2023/11/20 00:14:03;;;;;;;9.88;1.90;;;;;;;12.23;100.00;100001.75;5043219;28;20049;-71
2023/11/20 00:16:31;;;;;;;10.73;1.98;;;;;;;12.22;100.00;100000.91;5040859;28;20045;-68
2023/11/20 00:19:03;;;;;;;14.25;2.35;;;;;;;12.11;100.00;99991.88;5048295;28;20072;-69
2023/11/20 00:21:32;;;;;;;12.70;1.90;;;;;;;12.10;100.00;99987.50;5015565;28;20036;-70
2023/11/20 00:24:02;;;;;;;12.68;2.08;;;;;;;12.11;100.00;99987.41;5040987;28;20113;-68
2023/11/20 00:26:31;;;;;;;12.65;2.08;;;;;;;12.13;100.00;99985.50;5041860;28;20083;-70
2023/11/20 00:29:05;;;;;;;12.38;1.65;;;;;;;12.13;100.00;99982.00;5043875;28;20524;-68
2023/11/20 00:31:34;;;;;;;10.60;2.67;;;;;;;12.17;100.00;99984.38;5053446;28;20044;-69
2023/11/20 00:34:04;;;;;;;8.00;1.45;;;;;;;12.18;100.00;99986.09;5026805;28;20043;-69
2023/11/20 00:36:34;;;;;;;13.95;2.42;;;;;;;12.21;100.00;99980.59;5044137;28;20099;-69
2023/11/20 00:39:04;;;;;;;13.65;2.35;;;;;;;12.21;100.00;99982.41;5042666;28;20104;-70
2023/11/20 00:41:35;;;;;;;11.90;1.90;;;;;;;12.15;100.00;99986.25;5039566;28;20040;-70
2023/11/20 00:44:06;;;;;;;13.82;2.03;;;;;;;12.14;100.00;99991.66;5045572;28;20045;-69
2023/11/20 00:46:34;;;;;;;;;;;;;;;12.12;100.00;99990.94;5041643;28;20070;-70
2023/11/20 00:49:05;;;;;;;12.73;1.92;;;;;;;12.08;100.00;99979.63;5044312;28;20444;-70
2023/11/20 00:51:33;;;;;;;12.75;2.10;;;;;;;12.11;100.00;99983.91;5033879;28;20040;-69
2023/11/20 00:54:04;;;;;;;12.02;2.05;;;;;;;12.09;100.00;99986.66;5045430;28;21083;-70
2023/11/20 00:56:34;;;;;;;14.80;2.60;;;;;;;12.03;100.00;99978.19;5042671;28;20037;-69
2023/11/20 00:59:03;;;;;;;11.40;2.17;;;;;;;12.10;100.00;99998.97;5042951;28;20041;-69
2023/11/20 01:01:35;;;;;;;14.30;2.28;;;;;;;12.15;100.00;99994.22;5032531;28;20490;-69
2023/11/20 01:04:04;;;;;;;;;;;;;;;12.13;100.00;99996.13;5043236;28;20042;-70
2023/11/20 01:06:39;;;;;;;13.43;2.42;;;;;;;12.11;100.00;99997.19;5045664;28;19937;-70
2023/11/20 01:09:07;;;;;;;10.68;2.15;;;;;;;12.11;100.00;100003.34;5029615;28;20047;-70
2023/11/20 01:11:42;;;;;;;16.33;2.33;;;;;;;12.11;100.00;100006.00;5025962;28;20049;-69
2023/11/20 01:14:10;;;;;;;11.93;1.70;;;;;;;12.06;100.00;99991.28;5042540;28;20044;-70
2023/11/20 01:16:38;;;;;;;11.95;2.30;;;;;;;12.13;100.00;100008.53;5052695;28;20045;-70
2023/11/20 01:19:06;;;;;;;13.55;1.95;;;;;;;12.11;100.00;100000.69;5046152;28;20045;-69
2023/11/20 01:21:35;;;;;;;16.45;2.33;;;;;;;12.13;100.00;99998.78;5036644;28;20518;-70
2023/11/20 01:24:04;;;;;;;13.55;2.33;;;;;;;12.13;100.00;99998.78;5047552;28;20060;-70
2023/11/20 01:26:32;;;;;;;11.80;1.90;;;;;;;12.12;100.00;99996.22;5046643;28;20481;-70
2023/11/20 01:29:05;;;;;;;13.90;1.90;;;;;;;12.02;100.00;99979.97;5046542;28;20041;-69
2023/11/20 01:31:33;;;;;;;15.05;1.90;;;;;;;12.14;100.00;99994.31;5038089;28;20056;-69
2023/11/20 01:34:03;;;;;;;13.48;2.22;;;;;;;12.22;100.00;99995.59;5045525;28;20072;-69
2023/11/20 01:36:31;;;;;;;14.57;2.17;;;;;;;12.19;100.00;99993.09;5043569;28;20037;-69
2023/11/20 01:39:00;;;;;;;12.73;1.92;;;;;;;12.12;100.00;99998.88;5035204;28;20055;-69
2023/11/20 01:41:30;;;;;;;12.70;2.25;;;;;;;12.10;100.00;99993.66;5038437;28;20048;-70
2023/11/20 01:44:04;;;;;;;13.48;2.42;;;;;;;12.08;100.00;99987.59;5048720;28;20059;-69
2023/11/20 01:46:32;;;;;;;11.35;1.83;;;;;;;12.09;100.00;99981.34;5054077;28;20041;-69
2023/11/20 01:49:01;;;;;;;14.77;2.47;;;;;;;12.14;100.00;99973.09;5052226;28;20524;-68
2023/11/20 01:51:30;;;;;;;14.60;2.40;;;;;;;12.10;100.00;99975.09;5042816;28;20053;-69
2023/11/20 01:54:01;;;;;;;11.82;2.80;;;;;;;12.10;100.00;99982.19;5048772;28;20381;-69
2023/11/20 01:56:32;;;;;;;14.20;2.35;;;;;;;12.06;100.00;99984.16;5044185;28;20041;-69
2023/11/20 01:59:05;;;;;;;9.52;1.95;;;;;;;12.06;100.00;99976.22;5047622;28;20051;-68
2023/11/20 02:01:36;;;;;;;14.07;2.03;;;;;;;12.07;100.00;99985.88;5022877;28;20053;-70
2023/11/20 02:04:05;;;;;;;11.93;1.80;;;;;;;11.97;100.00;99968.78;5058061;28;20055;-69
2023/11/20 02:06:34;;;;;;;11.90;2.63;;;;;;;12.11;100.00;99992.72;5049941;28;20044;-69
2023/11/20 02:09:05;;;;;;;13.45;2.10;;;;;;;12.15;100.00;99985.41;5046607;28;20040;-69
2023/11/20 02:11:34;;;;;;;10.63;1.98;;;;;;;12.14;100.00;99987.22;5035637;28;20056;-69
2023/11/20 02:14:02;;;;;;;8.50;1.83;;;;;;;12.13;100.00;99982.00;5047455;28;20049;-70
2023/11/20 02:16:31;;;;;;;16.58;1.80;;;;;;;12.12;100.00;99983.78;5031528;28;20049;-69
2023/11/20 02:19:11;;;;;;;12.03;1.60;;;;;;;12.15;100.00;99980.94;5048679;28;20098;-69
2023/11/20 02:21:41;;;;;;;14.80;2.97;;;;;;;12.13;100.00;99979.34;5037154;28;20474;-70
2023/11/20 02:24:11;;;;;;;17.48;2.47;;;;;;;12.09;100.00;99983.16;5027197;28;20048;-69
2023/11/20 02:26:57;;;;;;;11.63;2.03;;;;;;;12.08;100.00;99978.78;5056603;28;20048;-69
2023/11/20 02:29:45;;;;;;;9.82;1.45;;;;;;;12.11;100.00;99976.81;5065197;28;20041;-69
2023/11/20 02:32:13;;;;;;;13.13;1.75;;;;;;;12.12;100.00;99978.47;5036022;28;20107;-69
2023/11/20 02:34:43;;;;;;;11.13;2.78;;;;;;;12.12;100.00;99975.81;5047804;28;20044;-69
2023/11/20 02:37:15;;;;;;;15.07;2.13;;;;;;;12.11;100.00;99974.16;5046045;28;20086;-69
2023/11/20 02:39:42;;;;;;;15.65;2.13;;;;;;;12.10;100.00;99967.13;5045465;28;20097;-69
2023/11/20 02:42:10;;;;;;;13.55;2.20;;;;;;;12.09;100.00;99972.53;5024382;28;20049;-69
2023/11/20 02:44:39;;;;;;;10.60;1.65;;;;;;;12.10;100.00;99974.25;5046925;28;20051;-69
2023/11/20 02:47:08;;;;;;;8.68;1.90;;;;;;;12.13;100.00;99971.38;5042233;28;20045;-69
2023/11/20 02:49:38;;;;;;;12.02;2.67;;;;;;;12.13;100.00;99972.22;5029578;28;20116;-68
2023/11/20 02:52:08;;;;;;;16.10;2.28;;;;;;;12.16;100.00;99965.88;5039486;28;20424;-69
2023/11/20 02:54:37;;;;;;;13.07;1.90;;;;;;;12.17;100.00;99968.44;5046759;28;20128;-69
2023/11/20 02:57:06;;;;;;;11.27;1.75;;;;;;;12.19;100.00;99965.72;5046332;28;21348;-68
2023/11/20 02:59:34;;;;;;;9.75;1.67;;;;;;;12.16;100.00;99964.09;5022611;28;20409;-70
2023/11/20 03:02:03;;;;;;;12.18;1.70;;;;;;;12.08;100.00;99971.66;5039034;28;20133;-70
2023/11/20 03:04:33;;;;;;;10.83;1.73;;;;;;;12.05;100.00;99978.94;5047695;28;20049;-69
2023/11/20 03:07:03;;;;;;;12.68;1.58;;;;;;;12.00;100.00;99968.59;5050124;28;20039;-69
2023/11/20 03:09:31;;;;;;;14.23;2.20;;;;;;;11.92;100.00;99977.03;5046054;28;20387;-69
2023/11/20 03:11:59;;;;;;;12.43;2.17;;;;;;;11.83;100.00;99974.91;5044796;28;20131;-69
2023/11/20 03:14:27;;;;;;;13.52;1.92;;;;;;;11.77;100.00;99980.59;5044493;28;20048;-69
2023/11/20 03:16:56;;;;;;;14.38;2.10;;;;;;;11.71;100.00;99964.13;5052219;28;20762;-69
2023/11/20 03:19:24;;;;;;;11.98;2.33;;;;;;;11.75;100.00;99976.28;5014779;28;20595;-69
2023/11/20 03:21:53;;;;;;;10.75;1.80;;;;;;;11.72;100.00;99963.19;5038738;28;20045;-69
2023/11/20 03:24:22;;;;;;;10.57;1.67;;;;;;;11.73;100.00;99972.84;5043168;28;20573;-69
2023/11/20 03:26:50;;;;;;;7.88;1.55;;;;;;;11.72;100.00;99965.84;5040960;28;20065;-69
2023/11/20 03:29:17;;;;;;;12.00;2.05;;;;;;;11.72;100.00;99956.09;5034010;28;20087;-69
2023/11/20 03:31:46;;;;;;;8.05;1.70;;;;;;;11.73;100.00;99956.94;5040211;28;20049;-69
2023/11/20 03:34:14;;;;;;;11.38;1.88;;;;;;;11.70;100.00;99949.16;5048625;28;20095;-69
2023/11/20 03:36:43;;;;;;;12.10;1.98;;;;;;;11.71;100.00;99957.03;5047014;28;20033;-70
2023/11/20 03:39:13;;;;;;;9.63;2.05;;;;;;;11.74;100.00;99961.31;5051708;28;20047;-69
2023/11/20 03:41:42;;;;;;;12.63;1.75;;;;;;;11.73;100.00;99956.94;5043265;28;20045;-69
2023/11/20 03:44:10;;;;;;;10.15;1.67;;;;;;;11.78;100.00;99952.25;5032453;28;20034;-70
2023/11/20 03:46:38;;;;;;;10.18;2.10;;;;;;;11.78;100.00;99960.22;5051474;28;20270;-68
2023/11/20 03:49:08;;;;;;;10.90;1.80;;;;;;;11.75;100.00;99955.91;5032981;28;20043;-69
2023/11/20 03:51:39;;;;;;;11.07;1.75;;;;;;;11.77;100.00;99955.84;5050811;28;20456;-68
2023/11/20 03:54:08;;;;;;;13.70;2.30;;;;;;;11.78;100.00;99957.56;5051382;28;20041;-69
2023/11/20 03:56:38;;;;;;;18.05;2.05;;;;;;;11.75;100.00;99957.72;5049736;28;20044;-69
2023/11/20 03:59:06;;;;;;;11.13;1.48;;;;;;;11.73;100.00;99949.84;5024562;28;20490;-69
2023/11/20 04:01:36;;;;;;;12.95;2.28;;;;;;;11.79;100.00;99956.63;5033272;28;20106;-70
2023/11/20 04:04:05;;;;;;;18.58;2.85;;;;;;;11.80;100.00;99963.66;5045718;28;20048;-69
2023/11/20 04:06:33;;;;;;;9.50;2.50;;;;;;;11.82;100.00;99964.38;5045720;28;20044;-69
2023/11/20 04:09:03;;;;;;;13.38;2.05;;;;;;;11.77;100.00;99959.38;5044960;28;20051;-70
2023/11/20 04:11:32;;;;;;;12.35;2.53;;;;;;;11.78;100.00;99963.72;5035741;28;20053;-69
2023/11/20 04:14:02;;;;;;;12.60;1.67;;;;;;;11.76;100.00;99956.81;5040066;28;20056;-69
2023/11/20 04:16:30;;;;;;;10.17;1.93;;;;;;;11.64;100.00;99952.19;5046885;28;20454;-72
2023/11/20 04:19:00;;;;;;;11.20;2.10;;;;;;;11.59;100.00;99955.94;5062518;28;20045;-68
2023/11/20 04:21:30;;;;;;;13.02;2.20;;;;;;;11.51;100.00;99952.88;5036858;28;20045;-68
2023/11/20 04:23:59;;;;;;;10.17;1.87;;;;;;;11.53;100.00;99944.84;5044112;28;20039;-69
2023/11/20 04:26:27;;;;;;;12.05;2.15;;;;;;;11.53;100.00;99956.28;5045223;28;20041;-69
2023/11/20 04:28:58;;;;;;;10.95;2.15;;;;;;;11.45;100.00;99952.41;5043908;28;20127;-71
2023/11/20 04:31:55;;;;;;;12.75;2.25;;;;;;;11.41;100.00;99950.84;5037204;28;20055;-69
2023/11/20 04:34:23;;;;;;;10.93;1.52;;;;;;;11.43;100.00;99944.53;5032939;28;20053;-70
2023/11/20 04:36:51;;;;;;;11.18;1.65;;;;;;;11.41;100.00;99940.25;5047246;28;20131;-69
2023/11/20 04:39:20;;;;;;;14.48;2.20;;;;;;;11.42;100.00;99937.50;5044640;28;20049;-70
2023/11/20 04:41:50;;;;;;;11.35;2.15;;;;;;;11.40;100.00;99952.66;5038962;28;20049;-68
2023/11/20 04:44:18;;;;;;;16.98;2.40;;;;;;;11.34;100.00;99929.13;5044017;28;20037;-69
2023/11/20 04:46:46;;;;;;;11.68;1.83;;;;;;;11.40;100.00;99934.09;5044771;28;20104;-69
2023/11/20 04:49:16;;;;;;;15.27;2.10;;;;;;;11.40;100.00;99931.44;5046307;28;20047;-68
2023/11/20 04:51:44;;;;;;;11.18;2.10;;;;;;;11.36;100.00;99937.84;5037789;28;20057;-68
2023/11/20 04:54:12;;;;;;;9.95;2.08;;;;;;;11.26;100.00;99931.38;5041036;28;20042;-68
2023/11/20 04:56:44;;;;;;;12.55;2.25;;;;;;;11.24;100.00;99930.59;5044998;28;20057;-69
2023/11/20 04:59:13;;;;;;;9.05;1.70;;;;;;;11.08;100.00;99925.31;5045841;28;20311;-69
2023/11/20 05:01:41;;;;;;;7.95;1.42;;;;;;;11.05;100.00;99933.44;5040867;28;20044;-68
2023/11/20 05:04:10;;;;;;;15.73;2.20;;;;;;;11.00;100.00;99932.00;5041821;28;20144;-68
2023/11/20 05:06:40;;;;;;;8.10;1.20;;;;;;;10.95;100.00;99936.69;5040312;28;20538;-69
2023/11/20 05:09:09;;;;;;;11.55;1.90;;;;;;;10.92;100.00;99931.56;5042153;28;20532;-68
2023/11/20 05:11:38;;;;;;;;;;;;;;;10.92;100.00;99934.22;5053953;28;20073;-68
2023/11/20 05:14:06;;;;;;;10.27;1.70;;;;;;;10.93;100.00;99944.72;5041104;28;20373;-69
2023/11/20 05:16:35;;;;;;;10.73;2.00;;;;;;;10.96;100.00;99947.22;5043071;28;20068;-70
2023/11/20 05:19:03;;;;;;;16.77;2.05;;;;;;;10.95;100.00;99936.69;5046959;28;20428;-68
2023/11/20 05:21:31;;;;;;;13.13;2.00;;;;;;;11.01;100.00;99939.03;5036763;28;20057;-68
2023/11/20 05:24:00;;;;;;;9.45;1.70;;;;;;;11.04;100.00;99939.69;5036118;28;20054;-69
2023/11/20 05:26:29;;;;;;;;;;;;;;;11.08;100.00;99943.00;5054715;28;20037;-69
2023/11/20 05:28:57;;;;;;;7.90;1.55;;;;;;;11.10;100.00;99941.13;5043858;28;19921;-68
2023/11/20 05:31:30;;;;;;;10.52;1.52;;;;;;;11.13;100.00;99943.63;5044126;28;20041;-69
2023/11/20 05:34:02;;;;;;;10.07;1.70;;;;;;;11.17;100.00;99934.56;5030686;28;20766;-69
2023/11/20 05:36:33;;;;;;;12.93;2.15;;;;;;;11.15;100.00;99933.78;5033871;28;20055;-69
2023/11/20 05:39:03;;;;;;;10.48;1.50;;;;;;;11.22;100.00;99937.78;5050908;28;20060;-69
2023/11/20 05:41:32;;;;;;;8.48;1.63;;;;;;;11.19;100.00;99936.16;5045723;28;20168;-68
2023/11/20 05:44:06;;;;;;;13.07;1.60;;;;;;;11.17;100.00;99927.47;5036916;28;20072;-68
2023/11/20 05:46:34;;;;;;;10.55;1.77;;;;;;;11.15;100.00;99929.34;5041569;28;20429;-69
2023/11/20 05:49:02;;;;;;;11.75;1.90;;;;;;;11.16;100.00;99940.81;5043134;28;20091;-68
2023/11/20 05:51:30;;;;;;;9.82;1.60;;;;;;;11.14;100.00;99929.44;5044673;28;20103;-69
2023/11/20 05:53:58;;;;;;;6.47;1.23;;;;;;;11.18;100.00;99941.53;5042714;28;20072;-70
2023/11/20 05:56:31;;;;;;;5.90;1.27;;;;;;;11.17;100.00;99939.88;5046978;28;20047;-68
2023/11/20 05:58:58;;;;;;;9.10;1.35;;;;;;;11.15;100.00;99939.09;5051772;28;20115;-69
2023/11/20 06:01:36;;;;;;;8.20;1.73;;;;;;;11.15;100.00;99933.78;5049258;28;20053;-69
2023/11/20 06:04:06;;;;;;;10.93;1.85;;;;;;;11.13;100.00;99933.03;5041145;28;20045;-70
2023/11/20 06:06:36;;;;;;;10.65;1.95;;;;;;;11.18;100.00;99933.59;5048886;28;20371;-70
2023/11/20 06:09:05;;;;;;;7.78;1.73;;;;;;;11.06;100.00;99924.56;5046789;28;20056;-69
2023/11/20 06:11:37;;;;;;;8.18;1.52;;;;;;;11.11;100.00;99942.84;5051711;28;20044;-69
2023/11/20 06:14:05;;;;;;;7.50;1.80;;;;;;;11.05;100.00;99920.19;5044247;28;20128;-68
2023/11/20 06:16:36;;;;;;;7.85;1.20;;;;;;;11.13;100.00;99939.19;5047824;28;20079;-68
2023/11/20 06:19:08;;;;;;;8.25;1.30;;;;;;;11.10;100.00;99951.75;5059552;28;20091;-69
2023/11/20 06:21:44;;;;;;;8.83;1.37;;;;;;;11.07;100.00;99946.59;5046033;28;20052;-69
2023/11/20 06:24:13;;;;;;;10.48;1.55;;;;;;;10.99;100.00;99931.16;5022732;28;20084;-69
2023/11/20 06:26:46;;;;;;;9.88;1.88;;;;;;;11.07;100.00;99957.19;5044811;28;20129;-69
2023/11/20 06:29:15;;;;;;;10.65;1.30;;;;;;;11.00;100.00;99953.22;5047724;28;20449;-68
2023/11/20 06:31:50;;;;;;;9.98;1.60;;;;;;;10.99;100.00;99962.09;5036546;28;20532;-70
2023/11/20 06:34:22;;;;;;;10.25;1.50;;;;;;;10.94;100.00;99959.69;5041385;28;20498;-68
2023/11/20 06:36:51;;;;;;;7.38;1.42;;;;;;;10.93;100.00;99965.06;5051302;28;20041;-68
2023/11/20 06:39:21;;;;;;;8.40;2.50;;;;;;;10.90;100.00;99974.03;5065329;28;20494;-69
2023/11/20 06:41:52;;;;;;;11.02;1.60;;;;;;;10.90;100.00;99981.97;5028201;28;20408;-69
2023/11/20 06:44:20;;;;;;;8.10;1.58;;;;;;;10.91;100.00;99975.75;5054280;28;20145;-70
2023/11/20 06:46:52;;;;;;;6.32;1.17;;;;;;;10.98;100.00;99968.31;5057739;28;20045;-69
2023/11/20 06:49:22;;;;;;;8.57;1.60;;;;;;;10.98;100.00;99970.97;5043451;28;20074;-69
2023/11/20 06:51:52;;;;;;;7.07;1.65;;;;;;;10.98;100.00;99976.28;5039866;28;20084;-71
2023/11/20 06:54:20;;;;;;;5.97;1.50;;;;;;;10.94;100.00;99966.78;5037549;28;20150;-70
2023/11/20 06:56:49;;;;;;;4.88;1.40;;;;;;;10.98;100.00;99968.31;5047350;28;20049;-70
2023/11/20 06:59:18;;;;;;;6.57;1.60;;;;;;;10.98;100.00;99965.69;5037841;28;20051;-70
2023/11/20 07:01:47;;;;;;;9.80;1.35;;;;;;;10.97;100.00;99966.63;5040405;28;20096;-70
2023/11/20 07:04:15;;;;;;;4.35;1.08;;;;;;;11.00;100.00;99971.75;5036311;28;20052;-69
2023/11/20 07:06:47;;;;;;;5.28;0.93;;;;;;;11.01;100.00;99974.31;5044038;28;20398;-69
2023/11/20 07:09:18;;;;;;;4.35;1.17;;;;;;;11.00;100.00;99971.75;5043197;28;20051;-70
2023/11/20 07:11:46;;;;;;;4.47;1.00;;;;;;;11.02;100.00;99975.16;5041996;28;20036;-69
2023/11/20 07:14:15;;;;;;;8.95;1.00;;;;;;;10.95;100.00;99985.25;5033427;28;20053;-69
2023/11/20 07:16:45;;;;;;;5.45;1.30;;;;;;;10.89;100.00;99975.81;5032765;28;20056;-70
2023/11/20 07:19:13;;;;;;;5.15;0.90;;;;;;;10.85;100.00;99978.75;5044254;28;20033;-70
2023/11/20 07:21:44;;;;;;;2.83;0.73;;;;;;;10.84;100.00;99988.47;5041585;28;20039;-70
2023/11/20 07:24:14;;;;;;;;;;;;;;;10.89;100.00;99986.41;5034508;28;20130;-70
2023/11/20 07:26:42;;;;;;;7.63;1.45;;;;;;;11.09;100.00;99995.06;5041928;28;19951;-69
2023/11/20 07:29:11;;;;;;;7.55;1.15;;;;;;;11.07;100.00;99991.66;5047269;28;20048;-69
2023/11/20 07:31:40;;;;;;;6.57;1.13;;;;;;;11.00;100.00;99991.16;5043767;28;20049;-70
2023/11/20 07:34:10;;;;;;;5.10;1.27;;;;;;;11.00;100.00;99991.16;5012501;28;20526;-69
2023/11/20 07:36:38;;;;;;;4.80;0.80;;;;;;;11.11;100.00;99987.91;5050462;28;20166;-69
2023/11/20 07:39:07;;;;;;;5.07;1.20;;;;;;;11.10;100.00;99986.19;5046582;28;20561;-69
2023/11/20 07:41:38;;;;;;;3.28;0.88;;;;;;;11.05;100.00;99991.72;5047197;28;20052;-71
2023/11/20 07:44:10;;;;;;;1.83;0.80;;;;;;;10.98;100.00;99995.69;5038562;28;20621;-70
2023/11/20 07:46:38;;;;;;;2.58;0.73;;;;;;;10.91;100.00;99996.94;5057589;28;20045;-69
2023/11/20 07:49:10;;;;;;;8.57;1.10;;;;;;;10.89;100.00;99997.00;5045631;28;20464;-71
2023/11/20 07:51:39;;;;;;;3.90;0.70;;;;;;;10.94;100.00;99993.28;5048588;28;20077;-70
2023/11/20 07:54:08;;;;;;;4.78;1.05;;;;;;;11.00;100.00;99991.16;5036063;28;20065;-69
2023/11/20 07:56:37;;;;;;;3.35;1.10;;;;;;;11.03;100.00;99995.41;5043363;28;20662;-69
2023/11/20 07:59:06;;;;;;;5.53;1.40;;;;;;;11.06;100.00;99997.88;5046204;28;20045;-70
2023/11/20 08:01:36;;;;;;;6.68;0.90;;;;;;;11.07;100.00;99994.31;5061336;28;20128;-69
2023/11/20 08:04:10;;;;;;;5.32;0.90;;;;;;;11.06;100.00;99992.59;5045552;28;20044;-74
2023/11/20 08:06:41;;;;;;;4.47;1.02;;;;;;;11.07;100.00;99997.81;5045402;28;20072;-70
2023/11/20 08:09:09;;;;;;;11.70;1.65;;;;;;;11.08;100.00;100002.16;5047427;28;20056;-69
2023/11/20 08:11:38;;;;;;;6.28;1.13;;;;;;;11.10;100.00;100002.94;5036191;28;20044;-70
2023/11/20 08:14:06;;;;;;;6.25;0.93;;;;;;;11.08;100.00;100002.16;5042990;28;20436;-69
2023/11/20 08:16:37;;;;;;;8.95;1.00;;;;;;;11.16;100.00;100010.56;5050885;28;20049;-71
2023/11/20 08:19:32;;;;;;;3.58;1.17;;;;;;;11.20;100.00;100003.28;5042099;28;20132;-72
2023/11/20 08:22:04;;;;;;;4.68;1.08;;;;;;;11.16;100.00;99999.97;5038682;28;20128;-72
2023/11/20 08:24:32;;;;;;;2.60;1.08;;;;;;;11.15;100.00;100003.56;5038856;28;20053;-71
2023/11/20 08:27:02;;;;;;;4.35;1.10;;;;;;;11.07;100.00;99999.59;5041361;28;20053;-71
2023/11/20 08:29:30;;;;;;;5.03;1.03;;;;;;;11.12;100.00;100003.72;5041300;28;20140;-70
2023/11/20 08:32:00;;;;;;;4.00;0.80;;;;;;;11.18;100.00;100005.16;5027584;28;20045;-71
2023/11/20 08:34:33;;;;;;;6.68;1.08;;;;;;;11.14;100.00;100003.63;5037618;28;20052;-70
2023/11/20 08:37:04;;;;;;;5.43;0.90;;;;;;;11.11;100.00;99995.84;5046860;28;20044;-71
2023/11/20 08:39:35;;;;;;;5.05;0.98;;;;;;;11.23;100.00;100008.41;5043901;28;20073;-71
2023/11/20 08:42:04;;;;;;;8.35;1.30;;;;;;;11.34;100.00;99998.06;5052229;28;20045;-71
2023/11/20 08:44:33;;;;;;;6.43;1.05;;;;;;;11.48;100.00;99994.66;5037579;28;20174;-69
2023/11/20 08:47:05;;;;;;;7.18;1.27;;;;;;;11.47;100.00;99996.44;5051729;28;20087;-69
2023/11/20 08:49:35;;;;;;;3.90;1.20;;;;;;;11.51;100.00;100010.34;5031874;28;20057;-71
2023/11/20 08:52:06;;;;;;;5.22;1.10;;;;;;;11.54;100.00;100000.44;5048677;28;20064;-70
2023/11/20 08:54:46;;;;;;;6.22;1.20;;;;;;;11.55;100.00;100001.28;5039013;28;20103;-69
2023/11/20 08:57:20;;;;;;;4.65;1.17;;;;;;;11.57;100.00;100012.66;5041007;28;20061;-70
2023/11/20 08:59:48;;;;;;;10.27;0.98;;;;;;;11.55;100.00;99996.00;5048496;28;20480;-70
2023/11/20 09:02:17;;;;;;;5.07;0.90;;;;;;;11.51;100.00;99983.84;5043151;28;20084;-71
2023/11/20 09:04:45;;;;;;;5.72;1.17;;;;;;;11.63;100.00;100011.47;5036098;28;20290;-69
2023/11/20 09:07:17;;;;;;;5.05;1.08;;;;;;;11.60;100.00;99989.50;5058617;28;20507;-70
2023/11/20 09:09:48;;;;;;;2.97;0.90;;;;;;;11.90;100.00;100010.75;5041564;28;20128;-70
2023/11/20 09:12:16;;;;;;;6.95;0.85;;;;;;;11.95;100.00;100023.75;5041014;28;20053;-70
2023/11/20 09:14:44;;;;;;;4.90;1.20;;;;;;;11.81;100.00;100016.59;5019164;28;20065;-69
2023/11/20 09:17:14;;;;;;;6.57;0.90;;;;;;;11.84;100.00;100012.91;5058180;28;20059;-70
2023/11/20 09:19:42;;;;;;;7.75;1.33;;;;;;;11.98;100.00;100020.06;5038393;28;20466;-71
2023/11/20 09:22:10;;;;;;;5.60;1.10;;;;;;;12.03;100.00;100018.00;5040470;28;20579;-70
2023/11/20 09:24:39;;;;;;;2.70;0.80;;;;;;;12.04;100.00;100020.56;5036437;28;20047;-70
2023/11/20 09:27:16;;;;;;;5.07;1.05;;;;;;;12.09;100.00;100021.16;5045400;28;20486;-69
2023/11/20 09:29:44;;;;;;;7.88;1.13;;;;;;;12.07;100.00;100023.03;5043002;28;20041;-70
2023/11/20 09:32:12;;;;;;;5.85;1.30;;;;;;;12.02;100.00;100013.63;5043945;28;20049;-70
2023/11/20 09:34:42;;;;;;;5.88;1.10;;;;;;;12.00;100.00;100008.41;5037879;28;20044;-69
2023/11/20 09:37:10;;;;;;;4.33;1.00;;;;;;;11.96;100.00;100009.56;5027238;28;21265;-69
2023/11/20 09:39:42;;;;;;;4.70;1.00;;;;;;;11.92;100.00;100014.19;5042933;28;20471;-69
2023/11/20 09:42:10;;;;;;;4.45;1.13;;;;;;;11.84;100.00;100005.78;5027570;28;20068;-69
2023/11/20 09:44:41;;;;;;;4.28;0.85;;;;;;;11.84;100.00;100008.44;5037864;28;20045;-70
2023/11/20 09:47:14;;;;;;;6.55;1.05;;;;;;;11.81;100.00;100018.38;5045687;28;20049;-70
2023/11/20 09:49:47;;;;;;;5.07;0.93;;;;;;;11.83;100.00;100017.34;5042987;28;20053;-71
2023/11/20 09:52:16;;;;;;;4.45;0.85;;;;;;;11.78;100.00;100005.31;5045266;28;20053;-69
2023/11/20 09:54:46;;;;;;;9.45;1.73;;;;;;;11.81;100.00;100007.78;5052049;28;20985;-70
2023/11/20 09:57:15;;;;;;;3.65;0.98;;;;;;;11.82;100.00;100004.16;5042115;28;20049;-70
2023/11/20 09:59:43;;;;;;;6.75;1.00;;;;;;;11.71;100.00;99986.22;5045592;28;20041;-69
2023/11/20 10:02:11;;;;;;;6.40;1.10;;;;;;;11.75;100.00;99977.13;5045291;28;20036;-70
2023/11/20 10:04:41;;;;;;;4.07;1.00;;;;;;;11.75;100.00;99976.28;5036148;28;20566;-69
2023/11/20 10:07:12;;;;;;;7.45;1.15;;;;;;;11.64;100.00;99984.00;5044178;28;20115;-70
2023/11/20 10:09:51;;;;;;;5.15;1.02;;;;;;;11.50;100.00;99980.34;5046096;28;20051;-69
2023/11/20 10:12:22;;;;;;;8.93;1.17;;;;;;;11.52;100.00;99977.59;5047070;28;20049;-69
2023/11/20 10:14:50;;;;;;;7.57;1.13;;;;;;;11.51;100.00;99968.78;5042283;28;20459;-69
2023/11/20 10:17:21;;;;;;;4.90;0.95;;;;;;;11.45;100.00;99965.66;5047174;28;20535;-70
2023/11/20 10:19:48;;;;;;;5.35;1.20;;;;;;;11.54;100.00;99962.47;5045627;28;20033;-70
2023/11/20 10:22:19;;;;;;;5.15;1.58;;;;;;;11.56;100.00;99960.56;5052581;28;20049;-69
2023/11/20 10:24:49;;;;;;;5.80;1.33;;;;;;;11.60;100.00;99957.66;5049957;28;20546;-70
2023/11/20 10:27:20;;;;;;;5.05;1.20;;;;;;;11.56;100.00;99953.47;5042651;28;20056;-70
2023/11/20 10:29:49;;;;;;;5.63;1.05;;;;;;;11.65;100.00;99959.19;5044056;28;20099;-69
2023/11/20 10:32:18;;;;;;;3.72;1.40;;;;;;;11.70;100.00;99949.16;5048567;28;20057;-70
2023/11/20 10:34:47;;;;;;;4.70;1.02;;;;;;;11.83;100.00;99953.69;5040645;28;20049;-71
2023/11/20 10:37:20;;;;;;;5.60;1.38;;;;;;;11.96;100.00;99955.63;5050384;28;20080;-69
2023/11/20 10:39:51;;;;;;;5.15;1.20;;;;;;;11.96;100.00;99945.00;5043325;28;20050;-70
2023/11/20 10:42:20;;;;;;;6.50;1.77;;;;;;;11.96;100.00;99943.22;5046513;28;20056;-70
2023/11/20 10:44:50;;;;;;;7.50;1.88;;;;;;;12.02;100.00;99945.47;5023506;28;21561;-71
2023/11/20 10:47:20;;;;;;;8.65;1.52;;;;;;;11.97;100.00;99944.03;5060066;28;20668;-70
2023/11/20 10:49:49;;;;;;;6.22;1.20;;;;;;;11.87;100.00;99933.13;5046243;28;20498;-69
2023/11/20 10:52:25;;;;;;;5.00;0.88;;;;;;;11.88;100.00;99943.66;5048719;28;20055;-72
2023/11/20 10:55:00;;;;;;;3.30;1.30;;;;;;;11.87;100.00;99926.03;5039578;28;20148;-71
2023/11/20 10:57:33;;;;;;;3.60;0.90;;;;;;;11.83;100.00;99924.50;5032862;28;20056;-70
2023/11/20 11:00:09;;;;;;;5.78;1.42;;;;;;;11.84;100.00;99926.22;5044645;28;20044;-70
2023/11/20 11:02:41;;;;;;;5.43;1.10;;;;;;;11.72;100.00;99916.31;5043679;28;20047;-71
2023/11/20 11:05:10;;;;;;;5.93;1.10;;;;;;;11.75;100.00;99925.88;5035997;28;20037;-70
2023/11/20 11:07:42;;;;;;;4.80;1.45;;;;;;;11.79;100.00;99922.13;5044175;28;20101;-70
2023/11/20 11:10:14;;;;;;;5.63;1.23;;;;;;;11.87;100.00;99910.13;5051260;28;20048;-69
2023/11/20 11:12:46;;;;;;;4.13;1.10;;;;;;;11.99;100.00;99911.16;5031978;28;20460;-69
2023/11/20 11:15:14;;;;;;;3.90;1.02;;;;;;;11.99;100.00;99907.66;5038139;28;20061;-71
2023/11/20 11:17:48;;;;;;;4.03;1.02;;;;;;;11.84;100.00;99902.34;5013118;28;20490;-71
2023/11/20 11:20:21;;;;;;;5.65;0.93;;;;;;;11.79;100.00;99899.13;5055543;28;20053;-71
2023/11/20 11:22:55;;;;;;;9.98;1.25;;;;;;;11.81;100.00;99899.84;5042182;28;22482;-70
2023/11/20 11:25:29;;;;;;;5.82;1.00;;;;;;;11.82;100.00;99890.09;5034557;28;20067;-70
2023/11/20 11:27:59;;;;;;;4.70;0.73;;;;;;;11.82;100.00;99892.75;5043134;28;20148;-71
2023/11/20 11:30:37;;;;;;;4.15;0.88;;;;;;;11.88;100.00;99892.41;5038595;28;20409;-71
2023/11/20 11:33:22;;;;;;;1.67;0.60;;;;;;;11.94;100.00;99876.13;5048885;28;20132;-71
2023/11/20 11:36:20;;;;;;;5.38;1.05;;;;;;;12.01;100.00;99877.44;5029088;28;20049;-70